sensor_id;sensor_type;location;lat;lon;timestamp;P1;durP1;ratioP1;P2;durP2;ratioP2
75071;SDS011;63651;55.728;38.022;2022-12-07T00:03:54;3.75;;;1.90;;
75071;SDS011;63651;55.728;38.022;2022-12-07T00:09:05;4.35;;;2.15;;
75071;SDS011;63651;55.728;38.022;2022-12-07T00:14:10;3.95;;;2.05;;
75071;SDS011;63651;55.728;38.022;2022-12-07T00:19:13;4.75;;;2.38;;
75071;SDS011;63651;55.728;38.022;2022-12-07T00:24:15;4.30;;;2.65;;
75071;SDS011;63651;55.728;38.022;2022-12-07T00:29:17;3.03;;;2.13;;
75071;SDS011;63651;55.728;38.022;2022-12-07T00:34:20;4.07;;;2.30;;
75071;SDS011;63651;55.728;38.022;2022-12-07T00:39:22;3.33;;;2.10;;
75071;SDS011;63651;55.728;38.022;2022-12-07T00:44:23;2.92;;;1.77;;
75071;SDS011;63651;55.728;38.022;2022-12-07T00:49:24;4.80;;;2.50;;
75071;SDS011;63651;55.728;38.022;2022-12-07T00:54:25;3.78;;;2.15;;
75071;SDS011;63651;55.728;38.022;2022-12-07T00:59:26;3.90;;;2.13;;
75071;SDS011;63651;55.728;38.022;2022-12-07T01:04:27;3.72;;;2.17;;
75071;SDS011;63651;55.728;38.022;2022-12-07T01:09:30;4.38;;;2.42;;
75071;SDS011;63651;55.728;38.022;2022-12-07T01:14:31;3.30;;;2.28;;
75071;SDS011;63651;55.728;38.022;2022-12-07T01:19:32;3.45;;;2.00;;
75071;SDS011;63651;55.728;38.022;2022-12-07T01:24:33;4.88;;;2.28;;
75071;SDS011;63651;55.728;38.022;2022-12-07T01:29:35;3.50;;;2.20;;
75071;SDS011;63651;55.728;38.022;2022-12-07T01:34:36;3.30;;;2.15;;
75071;SDS011;63651;55.728;38.022;2022-12-07T01:39:37;3.83;;;2.00;;
75071;SDS011;63651;55.728;38.022;2022-12-07T01:50:17;4.00;;;2.00;;
75071;SDS011;63651;55.728;38.022;2022-12-07T01:55:19;3.80;;;2.05;;
75071;SDS011;63651;55.728;38.022;2022-12-07T02:00:20;3.83;;;2.20;;
75071;SDS011;63651;55.728;38.022;2022-12-07T02:05:23;3.72;;;2.20;;
75071;SDS011;63651;55.728;38.022;2022-12-07T02:10:27;3.78;;;2.40;;
75071;SDS011;63651;55.728;38.022;2022-12-07T02:20:45;4.68;;;2.75;;
75071;SDS011;63651;55.728;38.022;2022-12-07T02:31:35;4.13;;;2.50;;
75071;SDS011;63651;55.728;38.022;2022-12-07T02:36:43;4.40;;;2.17;;
75071;SDS011;63651;55.728;38.022;2022-12-07T02:41:54;3.28;;;1.85;;
75071;SDS011;63651;55.728;38.022;2022-12-07T02:47:06;3.35;;;2.42;;
75071;SDS011;63651;55.728;38.022;2022-12-07T02:52:11;3.78;;;2.22;;
75071;SDS011;63651;55.728;38.022;2022-12-07T03:02:35;3.58;;;2.38;;
75071;SDS011;63651;55.728;38.022;2022-12-07T03:07:43;3.95;;;2.13;;
75071;SDS011;63651;55.728;38.022;2022-12-07T03:13:10;3.88;;;2.38;;
75071;SDS011;63651;55.728;38.022;2022-12-07T03:18:20;3.85;;;2.40;;
75071;SDS011;63651;55.728;38.022;2022-12-07T03:23:25;3.47;;;2.33;;
75071;SDS011;63651;55.728;38.022;2022-12-07T03:28:29;3.75;;;2.08;;
75071;SDS011;63651;55.728;38.022;2022-12-07T03:38:42;4.20;;;2.60;;
75071;SDS011;63651;55.728;38.022;2022-12-07T03:43:49;5.38;;;2.85;;
75071;SDS011;63651;55.728;38.022;2022-12-07T03:48:59;4.00;;;2.33;;
75071;SDS011;63651;55.728;38.022;2022-12-07T03:59:20;5.07;;;2.80;;
75071;SDS011;63651;55.728;38.022;2022-12-07T04:04:23;5.07;;;2.78;;
75071;SDS011;63651;55.728;38.022;2022-12-07T04:09:25;3.92;;;2.20;;
75071;SDS011;63651;55.728;38.022;2022-12-07T04:14:26;4.47;;;3.00;;
75071;SDS011;63651;55.728;38.022;2022-12-07T04:19:29;3.70;;;2.35;;
75071;SDS011;63651;55.728;38.022;2022-12-07T04:24:32;5.65;;;2.53;;
75071;SDS011;63651;55.728;38.022;2022-12-07T04:29:33;5.55;;;2.60;;
75071;SDS011;63651;55.728;38.022;2022-12-07T04:34:35;5.38;;;2.80;;
75071;SDS011;63651;55.728;38.022;2022-12-07T04:39:36;4.43;;;2.80;;
75071;SDS011;63651;55.728;38.022;2022-12-07T04:44:37;3.67;;;2.72;;
75071;SDS011;63651;55.728;38.022;2022-12-07T04:49:38;4.53;;;2.55;;
75071;SDS011;63651;55.728;38.022;2022-12-07T04:54:39;6.53;;;4.05;;
75071;SDS011;63651;55.728;38.022;2022-12-07T04:59:42;5.65;;;3.85;;
75071;SDS011;63651;55.728;38.022;2022-12-07T05:04:43;5.05;;;3.45;;
75071;SDS011;63651;55.728;38.022;2022-12-07T05:09:44;4.90;;;3.40;;
75071;SDS011;63651;55.728;38.022;2022-12-07T05:14:45;5.80;;;3.00;;
75071;SDS011;63651;55.728;38.022;2022-12-07T05:19:46;4.63;;;3.28;;
75071;SDS011;63651;55.728;38.022;2022-12-07T05:24:47;4.80;;;3.22;;
75071;SDS011;63651;55.728;38.022;2022-12-07T05:29:49;5.82;;;2.65;;
75071;SDS011;63651;55.728;38.022;2022-12-07T05:34:51;5.40;;;3.17;;
75071;SDS011;63651;55.728;38.022;2022-12-07T05:39:52;5.80;;;3.53;;
75071;SDS011;63651;55.728;38.022;2022-12-07T05:44:53;7.25;;;3.67;;
75071;SDS011;63651;55.728;38.022;2022-12-07T05:49:54;6.35;;;3.42;;
75071;SDS011;63651;55.728;38.022;2022-12-07T05:54:55;5.30;;;3.35;;
75071;SDS011;63651;55.728;38.022;2022-12-07T05:59:56;5.00;;;3.65;;
75071;SDS011;63651;55.728;38.022;2022-12-07T06:04:57;6.65;;;3.67;;
75071;SDS011;63651;55.728;38.022;2022-12-07T06:09:58;5.22;;;3.40;;
75071;SDS011;63651;55.728;38.022;2022-12-07T06:14:59;6.00;;;4.10;;
75071;SDS011;63651;55.728;38.022;2022-12-07T06:20:01;5.50;;;3.38;;
75071;SDS011;63651;55.728;38.022;2022-12-07T06:25:02;5.32;;;3.42;;
75071;SDS011;63651;55.728;38.022;2022-12-07T06:30:04;7.22;;;3.60;;
75071;SDS011;63651;55.728;38.022;2022-12-07T06:35:07;5.32;;;3.33;;
75071;SDS011;63651;55.728;38.022;2022-12-07T06:40:08;4.30;;;3.13;;
75071;SDS011;63651;55.728;38.022;2022-12-07T06:45:10;4.20;;;2.50;;
75071;SDS011;63651;55.728;38.022;2022-12-07T06:50:11;4.53;;;3.30;;
75071;SDS011;63651;55.728;38.022;2022-12-07T06:55:12;5.25;;;3.58;;
75071;SDS011;63651;55.728;38.022;2022-12-07T07:00:13;5.03;;;3.15;;
75071;SDS011;63651;55.728;38.022;2022-12-07T07:05:15;5.38;;;3.15;;
75071;SDS011;63651;55.728;38.022;2022-12-07T07:10:17;4.70;;;3.35;;
75071;SDS011;63651;55.728;38.022;2022-12-07T07:15:18;6.55;;;3.17;;
75071;SDS011;63651;55.728;38.022;2022-12-07T07:20:19;5.72;;;2.88;;
75071;SDS011;63651;55.728;38.022;2022-12-07T07:25:20;6.25;;;3.20;;
75071;SDS011;63651;55.728;38.022;2022-12-07T07:30:21;4.25;;;2.92;;
75071;SDS011;63651;55.728;38.022;2022-12-07T07:35:22;4.57;;;2.72;;
75071;SDS011;63651;55.728;38.022;2022-12-07T07:40:24;6.57;;;2.95;;
75071;SDS011;63651;55.728;38.022;2022-12-07T07:45:26;5.68;;;2.72;;
75071;SDS011;63651;55.728;38.022;2022-12-07T07:50:28;5.32;;;2.80;;
75071;SDS011;63651;55.728;38.022;2022-12-07T07:55:29;6.65;;;3.05;;
75071;SDS011;63651;55.728;38.022;2022-12-07T08:00:30;6.78;;;2.60;;
75071;SDS011;63651;55.728;38.022;2022-12-07T08:05:31;7.18;;;2.85;;
75071;SDS011;63651;55.728;38.022;2022-12-07T08:10:32;9.43;;;2.72;;
75071;SDS011;63651;55.728;38.022;2022-12-07T08:15:35;7.90;;;2.65;;
75071;SDS011;63651;55.728;38.022;2022-12-07T08:20:38;9.32;;;2.90;;
75071;SDS011;63651;55.728;38.022;2022-12-07T08:25:40;6.32;;;2.63;;
75071;SDS011;63651;55.728;38.022;2022-12-07T08:30:41;6.53;;;2.90;;
75071;SDS011;63651;55.728;38.022;2022-12-07T08:35:42;5.30;;;2.58;;
75071;SDS011;63651;55.728;38.022;2022-12-07T08:40:43;9.88;;;2.85;;
75071;SDS011;63651;55.728;38.022;2022-12-07T08:45:44;4.15;;;2.25;;
75071;SDS011;63651;55.728;38.022;2022-12-07T08:50:47;3.83;;;2.33;;
75071;SDS011;63651;55.728;38.022;2022-12-07T08:55:49;4.40;;;2.47;;
75071;SDS011;63651;55.728;38.022;2022-12-07T09:00:50;3.67;;;2.40;;
75071;SDS011;63651;55.728;38.022;2022-12-07T09:05:52;6.15;;;2.78;;
75071;SDS011;63651;55.728;38.022;2022-12-07T09:10:54;4.93;;;2.65;;
75071;SDS011;63651;55.728;38.022;2022-12-07T09:15:55;4.55;;;2.55;;
75071;SDS011;63651;55.728;38.022;2022-12-07T09:20:56;4.95;;;2.25;;
75071;SDS011;63651;55.728;38.022;2022-12-07T09:26:01;5.32;;;2.67;;
75071;SDS011;63651;55.728;38.022;2022-12-07T09:31:04;3.88;;;2.30;;
75071;SDS011;63651;55.728;38.022;2022-12-07T09:36:05;7.38;;;2.30;;
75071;SDS011;63651;55.728;38.022;2022-12-07T09:41:07;4.38;;;2.70;;
75071;SDS011;63651;55.728;38.022;2022-12-07T09:46:09;4.93;;;2.53;;
75071;SDS011;63651;55.728;38.022;2022-12-07T09:51:16;3.78;;;2.28;;
75071;SDS011;63651;55.728;38.022;2022-12-07T09:56:20;4.05;;;2.42;;
75071;SDS011;63651;55.728;38.022;2022-12-07T10:01:23;3.97;;;2.10;;
75071;SDS011;63651;55.728;38.022;2022-12-07T10:06:24;3.78;;;2.13;;
75071;SDS011;63651;55.728;38.022;2022-12-07T10:11:25;4.03;;;2.10;;
75071;SDS011;63651;55.728;38.022;2022-12-07T10:21:28;4.13;;;2.35;;
75071;SDS011;63651;55.728;38.022;2022-12-07T10:31:58;4.15;;;2.20;;
75071;SDS011;63651;55.728;38.022;2022-12-07T10:42:18;5.35;;;3.72;;
75071;SDS011;63651;55.728;38.022;2022-12-07T11:08:42;4.53;;;2.35;;
75071;SDS011;63651;55.728;38.022;2022-12-07T11:25:27;3.60;;;2.22;;
75071;SDS011;63651;55.728;38.022;2022-12-07T11:30:23;3.40;;;2.20;;
75071;SDS011;63651;55.728;38.022;2022-12-07T11:40:56;3.92;;;2.10;;
75071;SDS011;63651;55.728;38.022;2022-12-07T11:46:14;4.18;;;2.40;;
75071;SDS011;63651;55.728;38.022;2022-12-07T11:51:16;3.25;;;2.25;;
75071;SDS011;63651;55.728;38.022;2022-12-07T11:56:22;4.03;;;2.47;;
75071;SDS011;63651;55.728;38.022;2022-12-07T12:06:44;4.30;;;2.42;;
75071;SDS011;63651;55.728;38.022;2022-12-07T12:17:20;3.38;;;2.55;;
75071;SDS011;63651;55.728;38.022;2022-12-07T12:22:23;4.63;;;2.55;;
75071;SDS011;63651;55.728;38.022;2022-12-07T12:27:34;3.72;;;2.80;;
75071;SDS011;63651;55.728;38.022;2022-12-07T12:32:44;3.22;;;2.47;;
75071;SDS011;63651;55.728;38.022;2022-12-07T12:37:46;5.00;;;2.95;;
75071;SDS011;63651;55.728;38.022;2022-12-07T12:48:02;4.03;;;2.83;;
75071;SDS011;63651;55.728;38.022;2022-12-07T12:53:05;4.13;;;2.95;;
75071;SDS011;63651;55.728;38.022;2022-12-07T12:58:28;4.68;;;2.80;;
75071;SDS011;63651;55.728;38.022;2022-12-07T13:03:32;5.03;;;3.03;;
75071;SDS011;63651;55.728;38.022;2022-12-07T13:08:34;4.32;;;3.00;;
75071;SDS011;63651;55.728;38.022;2022-12-07T13:13:40;4.90;;;2.97;;
75071;SDS011;63651;55.728;38.022;2022-12-07T13:18:42;4.95;;;3.05;;
75071;SDS011;63651;55.728;38.022;2022-12-07T13:28:48;4.80;;;3.25;;
75071;SDS011;63651;55.728;38.022;2022-12-07T13:33:50;4.05;;;2.80;;
75071;SDS011;63651;55.728;38.022;2022-12-07T13:38:57;4.68;;;3.17;;
75071;SDS011;63651;55.728;38.022;2022-12-07T13:44:01;5.53;;;2.83;;
75071;SDS011;63651;55.728;38.022;2022-12-07T13:49:17;4.65;;;2.97;;
75071;SDS011;63651;55.728;38.022;2022-12-07T13:54:30;4.55;;;3.00;;
75071;SDS011;63651;55.728;38.022;2022-12-07T13:59:31;5.38;;;3.17;;
75071;SDS011;63651;55.728;38.022;2022-12-07T14:04:37;4.65;;;3.00;;
75071;SDS011;63651;55.728;38.022;2022-12-07T14:09:39;4.15;;;2.70;;
75071;SDS011;63651;55.728;38.022;2022-12-07T14:14:40;5.75;;;2.88;;
75071;SDS011;63651;55.728;38.022;2022-12-07T14:25:09;4.43;;;3.17;;
75071;SDS011;63651;55.728;38.022;2022-12-07T14:30:23;5.25;;;3.13;;
75071;SDS011;63651;55.728;38.022;2022-12-07T14:35:29;5.75;;;2.92;;
75071;SDS011;63651;55.728;38.022;2022-12-07T14:40:31;5.25;;;2.95;;
75071;SDS011;63651;55.728;38.022;2022-12-07T14:45:33;4.78;;;3.25;;
75071;SDS011;63651;55.728;38.022;2022-12-07T14:50:38;4.55;;;2.97;;
75071;SDS011;63651;55.728;38.022;2022-12-07T14:55:42;5.03;;;2.67;;
75071;SDS011;63651;55.728;38.022;2022-12-07T15:00:43;4.93;;;3.00;;
75071;SDS011;63651;55.728;38.022;2022-12-07T15:05:45;4.53;;;2.47;;
75071;SDS011;63651;55.728;38.022;2022-12-07T15:10:46;4.15;;;2.85;;
75071;SDS011;63651;55.728;38.022;2022-12-07T15:15:48;4.13;;;2.90;;
75071;SDS011;63651;55.728;38.022;2022-12-07T15:20:50;4.07;;;2.38;;
75071;SDS011;63651;55.728;38.022;2022-12-07T15:25:52;5.43;;;2.90;;
75071;SDS011;63651;55.728;38.022;2022-12-07T15:30:53;4.13;;;2.72;;
75071;SDS011;63651;55.728;38.022;2022-12-07T15:35:54;4.68;;;2.92;;
75071;SDS011;63651;55.728;38.022;2022-12-07T15:40:55;6.22;;;2.95;;
75071;SDS011;63651;55.728;38.022;2022-12-07T15:45:57;4.57;;;2.80;;
75071;SDS011;63651;55.728;38.022;2022-12-07T15:51:03;4.07;;;2.38;;
75071;SDS011;63651;55.728;38.022;2022-12-07T16:01:15;5.30;;;2.45;;
75071;SDS011;63651;55.728;38.022;2022-12-07T16:06:18;5.05;;;2.90;;
75071;SDS011;63651;55.728;38.022;2022-12-07T16:11:20;3.72;;;2.72;;
75071;SDS011;63651;55.728;38.022;2022-12-07T16:16:21;4.57;;;2.90;;
75071;SDS011;63651;55.728;38.022;2022-12-07T16:21:23;5.20;;;3.08;;
75071;SDS011;63651;55.728;38.022;2022-12-07T16:26:24;4.32;;;2.10;;
75071;SDS011;63651;55.728;38.022;2022-12-07T16:31:25;6.15;;;3.50;;
75071;SDS011;63651;55.728;38.022;2022-12-07T16:36:28;7.13;;;4.25;;
75071;SDS011;63651;55.728;38.022;2022-12-07T16:41:30;5.32;;;3.17;;
75071;SDS011;63651;55.728;38.022;2022-12-07T16:46:32;4.28;;;3.15;;
75071;SDS011;63651;55.728;38.022;2022-12-07T16:51:34;5.43;;;3.05;;
75071;SDS011;63651;55.728;38.022;2022-12-07T16:56:37;4.57;;;2.92;;
75071;SDS011;63651;55.728;38.022;2022-12-07T17:01:38;4.50;;;2.80;;
75071;SDS011;63651;55.728;38.022;2022-12-07T17:06:40;5.15;;;3.17;;
75071;SDS011;63651;55.728;38.022;2022-12-07T17:11:43;4.88;;;3.00;;
75071;SDS011;63651;55.728;38.022;2022-12-07T17:16:45;5.22;;;3.17;;
75071;SDS011;63651;55.728;38.022;2022-12-07T17:21:46;4.90;;;2.40;;
75071;SDS011;63651;55.728;38.022;2022-12-07T17:26:48;3.75;;;2.58;;
75071;SDS011;63651;55.728;38.022;2022-12-07T17:31:49;4.03;;;2.42;;
75071;SDS011;63651;55.728;38.022;2022-12-07T17:36:50;3.78;;;2.78;;
75071;SDS011;63651;55.728;38.022;2022-12-07T17:41:52;5.15;;;2.78;;
75071;SDS011;63651;55.728;38.022;2022-12-07T17:47:11;4.85;;;2.55;;
75071;SDS011;63651;55.728;38.022;2022-12-07T17:52:12;3.88;;;2.20;;
75071;SDS011;63651;55.728;38.022;2022-12-07T17:57:32;4.35;;;2.72;;
75071;SDS011;63651;55.728;38.022;2022-12-07T18:02:33;4.68;;;2.83;;
75071;SDS011;63651;55.728;38.022;2022-12-07T18:07:34;4.18;;;2.60;;
75071;SDS011;63651;55.728;38.022;2022-12-07T18:12:35;4.78;;;2.38;;
75071;SDS011;63651;55.728;38.022;2022-12-07T18:17:37;5.93;;;2.50;;
75071;SDS011;63651;55.728;38.022;2022-12-07T18:22:39;3.85;;;2.60;;
75071;SDS011;63651;55.728;38.022;2022-12-07T18:27:41;4.18;;;2.55;;
75071;SDS011;63651;55.728;38.022;2022-12-07T18:32:42;3.72;;;2.35;;
75071;SDS011;63651;55.728;38.022;2022-12-07T18:37:44;5.07;;;2.90;;
75071;SDS011;63651;55.728;38.022;2022-12-07T18:42:45;5.53;;;3.25;;
75071;SDS011;63651;55.728;38.022;2022-12-07T18:47:46;4.80;;;3.10;;
75071;SDS011;63651;55.728;38.022;2022-12-07T18:52:47;4.05;;;2.60;;
75071;SDS011;63651;55.728;38.022;2022-12-07T18:57:48;4.57;;;2.72;;
75071;SDS011;63651;55.728;38.022;2022-12-07T19:02:49;4.55;;;3.05;;
75071;SDS011;63651;55.728;38.022;2022-12-07T19:07:52;4.20;;;2.60;;
75071;SDS011;63651;55.728;38.022;2022-12-07T19:12:53;4.50;;;2.90;;
75071;SDS011;63651;55.728;38.022;2022-12-07T19:17:54;4.13;;;2.65;;
75071;SDS011;63651;55.728;38.022;2022-12-07T19:22:55;3.67;;;2.38;;
75071;SDS011;63651;55.728;38.022;2022-12-07T19:27:56;5.80;;;3.28;;
75071;SDS011;63651;55.728;38.022;2022-12-07T19:32:57;8.30;;;3.55;;
75071;SDS011;63651;55.728;38.022;2022-12-07T19:37:58;5.35;;;2.80;;
75071;SDS011;63651;55.728;38.022;2022-12-07T19:42:59;4.93;;;2.75;;
75071;SDS011;63651;55.728;38.022;2022-12-07T19:48:00;5.10;;;2.67;;
75071;SDS011;63651;55.728;38.022;2022-12-07T19:53:01;4.90;;;2.58;;
75071;SDS011;63651;55.728;38.022;2022-12-07T19:58:02;3.80;;;2.42;;
75071;SDS011;63651;55.728;38.022;2022-12-07T20:03:03;5.07;;;2.30;;
75071;SDS011;63651;55.728;38.022;2022-12-07T20:08:04;3.20;;;2.38;;
75071;SDS011;63651;55.728;38.022;2022-12-07T20:13:07;3.67;;;2.30;;
75071;SDS011;63651;55.728;38.022;2022-12-07T20:18:27;4.25;;;2.90;;
75071;SDS011;63651;55.728;38.022;2022-12-07T20:23:28;2.70;;;1.77;;
75071;SDS011;63651;55.728;38.022;2022-12-07T20:28:29;3.97;;;2.53;;
75071;SDS011;63651;55.728;38.022;2022-12-07T20:33:30;5.95;;;2.60;;
75071;SDS011;63651;55.728;38.022;2022-12-07T20:38:32;3.38;;;1.98;;
75071;SDS011;63651;55.728;38.022;2022-12-07T20:43:33;3.58;;;2.22;;
75071;SDS011;63651;55.728;38.022;2022-12-07T20:48:34;5.65;;;2.60;;
75071;SDS011;63651;55.728;38.022;2022-12-07T20:53:35;3.55;;;2.08;;
75071;SDS011;63651;55.728;38.022;2022-12-07T20:58:36;4.05;;;2.03;;
75071;SDS011;63651;55.728;38.022;2022-12-07T21:03:37;3.67;;;2.00;;
75071;SDS011;63651;55.728;38.022;2022-12-07T21:08:45;7.05;;;2.20;;
75071;SDS011;63651;55.728;38.022;2022-12-07T21:13:50;2.80;;;2.00;;
75071;SDS011;63651;55.728;38.022;2022-12-07T21:18:54;2.78;;;1.88;;
75071;SDS011;63651;55.728;38.022;2022-12-07T21:23:56;4.18;;;2.03;;
75071;SDS011;63651;55.728;38.022;2022-12-07T21:28:58;3.10;;;2.22;;
75071;SDS011;63651;55.728;38.022;2022-12-07T21:34:00;5.18;;;2.30;;
75071;SDS011;63651;55.728;38.022;2022-12-07T21:39:03;3.22;;;1.83;;
75071;SDS011;63651;55.728;38.022;2022-12-07T21:44:05;4.30;;;2.08;;
75071;SDS011;63651;55.728;38.022;2022-12-07T21:49:10;4.50;;;2.55;;
75071;SDS011;63651;55.728;38.022;2022-12-07T21:54:13;2.75;;;1.92;;
75071;SDS011;63651;55.728;38.022;2022-12-07T21:59:15;2.90;;;1.75;;
75071;SDS011;63651;55.728;38.022;2022-12-07T22:04:21;3.80;;;2.22;;
75071;SDS011;63651;55.728;38.022;2022-12-07T22:09:24;4.28;;;2.13;;
75071;SDS011;63651;55.728;38.022;2022-12-07T22:14:27;3.20;;;1.75;;
75071;SDS011;63651;55.728;38.022;2022-12-07T22:19:46;3.42;;;1.80;;
75071;SDS011;63651;55.728;38.022;2022-12-07T22:24:48;4.63;;;1.90;;
75071;SDS011;63651;55.728;38.022;2022-12-07T22:29:49;4.00;;;2.28;;
75071;SDS011;63651;55.728;38.022;2022-12-07T22:34:50;2.97;;;1.88;;
75071;SDS011;63651;55.728;38.022;2022-12-07T22:39:51;3.97;;;1.85;;
75071;SDS011;63651;55.728;38.022;2022-12-07T22:44:53;2.50;;;1.90;;
75071;SDS011;63651;55.728;38.022;2022-12-07T22:49:54;3.20;;;2.10;;
75071;SDS011;63651;55.728;38.022;2022-12-07T22:54:56;3.63;;;2.22;;
75071;SDS011;63651;55.728;38.022;2022-12-07T22:59:57;3.25;;;2.08;;
75071;SDS011;63651;55.728;38.022;2022-12-07T23:04:58;3.03;;;1.80;;
75071;SDS011;63651;55.728;38.022;2022-12-07T23:09:59;3.22;;;2.03;;
75071;SDS011;63651;55.728;38.022;2022-12-07T23:15:00;4.38;;;2.70;;
75071;SDS011;63651;55.728;38.022;2022-12-07T23:20:04;4.15;;;1.80;;
75071;SDS011;63651;55.728;38.022;2022-12-07T23:25:05;4.55;;;2.20;;
75071;SDS011;63651;55.728;38.022;2022-12-07T23:30:07;3.05;;;2.10;;
75071;SDS011;63651;55.728;38.022;2022-12-07T23:35:08;4.20;;;2.50;;
75071;SDS011;63651;55.728;38.022;2022-12-07T23:40:09;3.55;;;2.55;;
75071;SDS011;63651;55.728;38.022;2022-12-07T23:45:11;3.97;;;2.28;;
75071;SDS011;63651;55.728;38.022;2022-12-07T23:50:12;3.92;;;2.15;;
75071;SDS011;63651;55.728;38.022;2022-12-07T23:55:13;3.13;;;2.42;;
